Time;durP1;ratioP1;P1;durP2;ratioP2;P2;SDS_P1;SDS_P2;PMS_P1;PMS_P2;Temp;Humidity;BMP_temperature;BMP_pressure;BME280_temperature;BME280_humidity;BME280_pressure;Samples;Min_cycle;Max_cycle;Signal;HPM_P1;HPM_P2
2021/12/02 00:01:21;;;;;;;7.13;1.00;;;9.90;86.10;;;;;;5034741;28;20392;-78
2021/12/02 00:03:48;;;;;;;13.55;1.67;;;9.90;86.00;;;;;;5033718;28;20495;-78
2021/12/02 00:06:18;;;;;;;7.68;1.20;;;9.90;86.20;;;;;;5033328;28;20455;-77
2021/12/02 00:08:45;;;;;;;5.95;1.20;;;9.90;87.00;;;;;;5033140;28;20079;-77
2021/12/02 00:11:11;;;;;;;10.30;1.45;;;9.90;86.60;;;;;;5033339;28;20033;-78
2021/12/02 00:13:59;;;;;;;8.85;1.40;;;10.00;86.50;;;;;;5034534;28;20064;-78
2021/12/02 00:21:22;;;;;;;6.22;1.35;;;10.00;86.20;;;;;;5034285;28;20041;-77
2021/12/02 00:23:57;;;;;;;9.07;1.40;;;10.00;86.20;;;;;;5032923;28;20469;-78
2021/12/02 00:26:22;;;;;;;7.88;1.30;;;10.00;86.10;;;;;;5033290;28;20176;-77
2021/12/02 00:28:57;;;;;;;6.15;1.17;;;10.00;85.80;;;;;;5032765;28;20049;-78
2021/12/02 00:31:28;;;;;;;6.30;1.20;;;10.10;85.80;;;;;;5034411;28;20057;-78
2021/12/02 00:33:57;;;;;;;6.07;1.42;;;10.10;85.80;;;;;;5049620;28;20053;-78
2021/12/02 00:36:25;;;;;;;4.55;1.00;;;10.10;85.60;;;;;;5032729;28;20021;-78
2021/12/02 00:38:51;;;;;;;8.65;1.30;;;10.10;85.80;;;;;;5033850;28;20431;-77
2021/12/02 00:41:21;;;;;;;8.05;1.63;;;10.10;85.80;;;;;;5033966;28;20018;-78
2021/12/02 00:43:49;;;;;;;6.47;1.13;;;10.10;85.70;;;;;;5032800;28;20028;-77
2021/12/02 00:46:17;;;;;;;7.25;1.25;;;10.10;85.90;;;;;;5032495;28;20021;-77
2021/12/02 00:48:43;;;;;;;4.78;1.00;;;10.10;85.50;;;;;;5025771;28;20037;-77
2021/12/02 00:51:09;;;;;;;7.55;1.30;;;10.00;85.70;;;;;;5013655;28;20490;-78
2021/12/02 00:53:38;;;;;;;5.97;1.10;;;10.10;85.70;;;;;;5013965;28;20022;-76
2021/12/02 00:56:05;;;;;;;6.47;1.17;;;10.10;85.60;;;;;;5012445;28;20037;-78
2021/12/02 00:58:32;;;;;;;5.45;0.90;;;10.00;85.70;;;;;;5013653;28;20026;-78
2021/12/02 01:00:58;;;;;;;4.88;0.90;;;10.00;85.70;;;;;;5012605;28;20022;-78
2021/12/02 01:03:27;;;;;;;4.07;1.10;;;10.00;85.70;;;;;;5012699;28;20124;-76
2021/12/02 01:05:53;;;;;;;4.30;1.17;;;10.00;85.80;;;;;;5014009;28;20108;-78
2021/12/02 01:08:19;;;;;;;5.20;1.30;;;10.00;86.00;;;;;;5014092;28;20054;-78
2021/12/02 01:10:45;;;;;;;3.95;1.00;;;10.00;85.80;;;;;;5012303;28;20022;-78
2021/12/02 01:13:10;;;;;;;3.60;0.90;;;9.90;85.80;;;;;;5012697;28;20026;-77
2021/12/02 01:15:36;;;;;;;5.13;1.00;;;9.90;86.40;;;;;;5012468;28;20018;-78
2021/12/02 01:18:02;;;;;;;4.80;1.15;;;9.90;86.00;;;;;;5012277;28;20029;-78
2021/12/02 01:20:31;;;;;;;6.22;1.10;;;9.90;86.10;;;;;;5032027;23;20138;-78
2021/12/02 01:22:59;;;;;;;4.85;1.35;;;9.90;86.20;;;;;;5015836;28;20087;-79
2021/12/02 01:25:28;;;;;;;3.20;1.00;;;9.90;86.20;;;;;;5033236;28;20017;-77
2021/12/02 01:27:54;;;;;;;4.70;1.27;;;9.90;86.70;;;;;;5015401;28;20021;-77
2021/12/02 01:30:19;;;;;;;4.65;1.00;;;9.80;86.00;;;;;;5018312;28;20086;-80
2021/12/02 01:32:48;;;;;;;4.28;1.00;;;9.90;86.10;;;;;;5053070;28;20104;-78
2021/12/02 01:35:18;;;;;;;5.85;1.33;;;9.80;86.10;;;;;;5052134;28;20021;-78
2021/12/02 01:37:45;;;;;;;5.32;1.25;;;9.80;86.10;;;;;;5052685;28;20029;-78
2021/12/02 01:40:11;;;;;;;3.95;1.00;;;9.90;86.10;;;;;;5034439;28;20021;-78
2021/12/02 01:42:39;;;;;;;5.13;1.05;;;9.80;86.10;;;;;;5034648;28;20121;-78
2021/12/02 01:45:05;;;;;;;3.80;1.05;;;9.90;86.20;;;;;;5034676;28;20025;-77
2021/12/02 01:47:33;;;;;;;6.68;1.15;;;9.90;86.10;;;;;;5052442;28;20104;-78
2021/12/02 01:50:02;;;;;;;3.13;0.90;;;9.90;86.10;;;;;;5034365;28;20510;-76
2021/12/02 01:52:31;;;;;;;5.03;1.00;;;9.90;86.20;;;;;;5051257;28;20076;-77
2021/12/02 01:55:08;;;;;;;4.90;1.15;;;9.90;86.20;;;;;;5034553;28;20024;-77
2021/12/02 01:57:35;;;;;;;5.38;1.35;;;9.90;86.20;;;;;;5034548;28;20025;-77
2021/12/02 02:00:19;;;;;;;5.72;1.30;;;9.90;86.10;;;;;;5034126;28;20033;-77
2021/12/02 02:02:46;;;;;;;4.63;1.10;;;9.80;86.10;;;;;;5034516;28;20021;-77
2021/12/02 02:05:14;;;;;;;5.68;1.15;;;9.90;86.10;;;;;;5034558;28;20111;-77
2021/12/02 02:07:48;;;;;;;4.68;1.00;;;9.90;86.10;;;;;;5034381;28;20033;-78
2021/12/02 02:10:15;;;;;;;3.58;0.88;;;9.90;86.10;;;;;;5033871;28;20028;-77
2021/12/02 02:12:41;;;;;;;6.95;1.20;;;9.90;86.10;;;;;;5034460;28;20111;-77
2021/12/02 02:15:07;;;;;;;6.28;1.15;;;9.90;86.10;;;;;;5034388;28;20436;-77
2021/12/02 02:17:41;;;;;;;3.72;1.00;;;9.90;86.00;;;;;;5034436;28;20028;-77
2021/12/02 02:20:10;;;;;;;4.28;1.00;;;9.90;86.00;;;;;;5034022;28;20118;-77
2021/12/02 02:22:36;;;;;;;5.43;1.20;;;9.80;85.80;;;;;;5034372;28;20082;-77
2021/12/02 02:25:02;;;;;;;4.75;1.10;;;9.90;85.90;;;;;;5034237;28;20057;-76
2021/12/02 02:27:28;;;;;;;5.97;1.20;;;9.90;85.90;;;;;;5052047;28;20028;-77
2021/12/02 02:29:54;;;;;;;3.75;1.20;;;9.90;85.80;;;;;;5033824;28;20031;-78
2021/12/02 02:32:25;;;;;;;4.55;0.93;;;9.90;85.70;;;;;;5034206;28;20116;-78
2021/12/02 02:34:50;;;;;;;6.15;1.10;;;9.90;85.70;;;;;;5050814;28;20083;-77
2021/12/02 02:37:16;;;;;;;7.57;1.50;;;9.90;85.70;;;;;;5034202;28;20484;-77
2021/12/02 02:39:41;;;;;;;4.50;1.00;;;9.90;85.70;;;;;;5051617;28;20554;-76
2021/12/02 02:42:09;;;;;;;5.63;1.10;;;9.90;85.70;;;;;;5034151;28;20025;-78
2021/12/02 02:44:35;;;;;;;5.78;1.33;;;9.90;85.80;;;;;;5034076;28;20108;-78
2021/12/02 02:47:02;;;;;;;6.00;1.38;;;9.90;85.80;;;;;;5034097;28;20047;-78
2021/12/02 02:49:27;;;;;;;4.30;0.95;;;9.90;85.70;;;;;;5037577;28;20027;-77
2021/12/02 02:51:53;;;;;;;4.75;1.08;;;9.90;85.80;;;;;;5037782;28;20021;-77
2021/12/02 02:54:19;;;;;;;4.45;1.00;;;9.90;85.80;;;;;;5037859;28;20033;-77
2021/12/02 02:56:56;;;;;;;5.47;1.42;;;9.90;85.70;;;;;;5055543;28;20021;-77
2021/12/02 03:02:13;;;;;;;5.97;1.20;;;9.90;85.70;;;;;;5055927;28;20036;-79
2021/12/02 03:04:55;;;;;;;3.58;0.93;;;9.90;85.80;;;;;;5040398;28;20056;-79
2021/12/02 03:07:34;;;;;;;4.90;1.23;;;9.80;85.80;;;;;;5056625;28;20025;-79
2021/12/02 03:12:42;;;;;;;4.20;1.00;;;9.90;86.00;;;;;;5055602;28;20017;-77
2021/12/02 03:17:33;;;;;;;4.93;1.17;;;9.90;86.00;;;;;;5055060;28;20066;-77
2021/12/02 03:20:00;;;;;;;5.88;1.40;;;9.90;86.00;;;;;;5037011;28;20108;-76
2021/12/02 03:22:26;;;;;;;4.80;1.10;;;9.90;86.00;;;;;;5053807;28;20037;-78
2021/12/02 03:24:52;;;;;;;4.90;1.20;;;9.90;86.00;;;;;;5037014;28;20036;-77
2021/12/02 03:27:17;;;;;;;6.85;1.05;;;9.90;86.00;;;;;;5037053;28;20407;-76
2021/12/02 03:29:43;;;;;;;4.82;1.27;;;9.90;86.00;;;;;;5054805;28;20100;-80
2021/12/02 03:32:12;;;;;;;6.25;1.20;;;9.90;86.00;;;;;;5037284;28;20457;-77
2021/12/02 03:34:40;;;;;;;4.25;1.15;;;9.90;86.40;;;;;;5052832;28;20056;-77
2021/12/02 03:37:06;;;;;;;4.07;1.17;;;9.90;85.90;;;;;;5036748;28;20025;-77
2021/12/02 03:39:31;;;;;;;6.32;1.20;;;9.90;85.80;;;;;;5054662;28;20025;-77
2021/12/02 03:41:57;;;;;;;4.75;1.10;;;9.90;85.90;;;;;;5054576;28;20029;-77
2021/12/02 03:44:24;;;;;;;2.50;0.85;;;9.90;85.90;;;;;;5036919;28;20047;-77
2021/12/02 03:46:51;;;;;;;5.50;1.45;;;9.90;85.90;;;;;;5036816;28;20025;-76
2021/12/02 03:49:17;;;;;;;7.43;1.60;;;9.90;85.90;;;;;;5054335;28;20036;-76
2021/12/02 03:51:42;;;;;;;5.43;1.10;;;9.90;85.90;;;;;;5054448;28;20476;-77
2021/12/02 03:54:08;;;;;;;4.93;1.23;;;9.90;85.90;;;;;;5054530;28;20086;-77
2021/12/02 03:56:33;;;;;;;3.45;1.10;;;9.90;85.90;;;;;;5054361;28;20017;-77
2021/12/02 03:58:59;;;;;;;4.88;1.30;;;9.90;85.90;;;;;;5035854;28;20411;-77
2021/12/02 04:01:25;;;;;;;4.93;1.15;;;9.90;85.80;;;;;;5036528;28;20028;-76
2021/12/02 04:03:52;;;;;;;7.15;1.40;;;9.80;85.80;;;;;;5036621;28;20021;-76
2021/12/02 04:06:19;;;;;;;6.07;1.20;;;9.90;85.80;;;;;;5054352;28;20024;-77
2021/12/02 04:11:47;;;;;;;6.60;1.70;;;9.90;85.60;;;;;;5054448;28;20052;-78
2021/12/02 04:14:19;;;;;;;4.18;1.00;;;9.90;85.60;;;;;;5054115;28;20495;-77
2021/12/02 04:16:52;;;;;;;3.88;1.15;;;9.90;85.50;;;;;;5036202;28;20385;-77
2021/12/02 04:19:18;;;;;;;6.25;1.50;;;9.80;85.60;;;;;;5035909;28;20432;-77
2021/12/02 04:21:44;;;;;;;5.88;1.27;;;9.90;85.60;;;;;;5035983;28;20040;-77
2021/12/02 04:24:10;;;;;;;5.15;1.35;;;9.90;85.40;;;;;;5036219;28;20025;-79
2021/12/02 04:26:35;;;;;;;6.88;1.33;;;9.90;85.40;;;;;;5036951;28;20021;-79
2021/12/02 04:29:01;;;;;;;4.25;1.00;;;9.90;85.40;;;;;;5036461;28;20021;-79
2021/12/02 04:31:26;;;;;;;7.35;1.92;;;9.90;85.50;;;;;;5036777;28;20036;-79
2021/12/02 04:33:52;;;;;;;5.70;1.23;;;9.90;85.60;;;;;;5036208;28;20021;-76
2021/12/02 04:36:18;;;;;;;5.13;1.17;;;9.90;86.10;;;;;;5035807;28;20028;-76
2021/12/02 04:38:43;;;;;;;4.85;1.30;;;9.90;85.60;;;;;;5053349;28;20025;-76
2021/12/02 04:41:09;;;;;;;6.00;1.25;;;9.90;85.70;;;;;;5035514;28;20033;-76
2021/12/02 04:43:34;;;;;;;5.32;1.48;;;9.90;85.60;;;;;;5035951;28;20021;-78
2021/12/02 04:46:00;;;;;;;5.68;1.30;;;9.90;85.70;;;;;;5035807;28;20082;-78
2021/12/02 04:48:25;;;;;;;6.43;1.55;;;9.90;85.70;;;;;;5035994;28;20025;-77
2021/12/02 04:50:52;;;;;;;5.93;1.25;;;9.90;85.80;;;;;;5035221;28;20075;-78
2021/12/02 04:53:18;;;;;;;6.72;1.38;;;9.90;85.70;;;;;;5035944;28;20025;-77
2021/12/02 04:55:44;;;;;;;4.30;1.23;;;9.90;85.70;;;;;;5035611;28;20548;-78
2021/12/02 04:58:10;;;;;;;6.32;1.58;;;9.80;85.60;;;;;;5035932;28;20475;-78
2021/12/02 05:00:35;;;;;;;7.25;1.70;;;9.90;85.70;;;;;;5035187;28;20035;-77
2021/12/02 05:03:01;;;;;;;6.10;1.45;;;9.90;85.80;;;;;;5035487;28;20407;-77
2021/12/02 05:05:27;;;;;;;4.25;1.15;;;9.90;85.80;;;;;;5035369;28;20060;-77
2021/12/02 05:07:53;;;;;;;4.10;1.15;;;9.90;85.80;;;;;;5053156;28;20025;-78
2021/12/02 05:10:20;;;;;;;5.47;1.30;;;9.90;85.90;;;;;;5034102;28;20403;-78
2021/12/02 05:12:45;;;;;;;4.28;1.33;;;9.90;85.90;;;;;;5035095;28;20053;-77
2021/12/02 05:15:11;;;;;;;4.40;1.10;;;9.80;85.90;;;;;;5035139;28;20094;-77
2021/12/02 05:17:36;;;;;;;4.70;1.30;;;9.90;86.00;;;;;;5052856;28;20116;-77
2021/12/02 05:20:04;;;;;;;6.10;1.33;;;9.90;85.90;;;;;;5034800;28;20087;-77
2021/12/02 05:22:30;;;;;;;6.70;1.30;;;9.90;86.00;;;;;;5049764;28;20463;-77
2021/12/02 05:24:55;;;;;;;5.43;1.40;;;9.80;85.90;;;;;;5048886;28;20068;-76
2021/12/02 05:27:21;;;;;;;5.30;1.70;;;9.90;86.00;;;;;;5048951;28;20029;-76
2021/12/02 05:29:46;;;;;;;5.43;1.10;;;11.10;86.60;;;;;;5027469;28;21920;-76
2021/12/02 05:32:12;;;;;;;6.50;1.30;;;9.90;86.00;;;;;;5030150;28;20529;-77
2021/12/02 05:34:37;;;;;;;5.15;1.52;;;9.90;86.00;;;;;;5046232;28;20419;-81
2021/12/02 05:37:04;;;;;;;5.30;1.30;;;9.80;86.00;;;;;;5048507;28;20086;-77
2021/12/02 05:39:29;;;;;;;5.47;1.15;;;9.90;86.10;;;;;;5048067;28;20025;-76
2021/12/02 05:41:55;;;;;;;5.68;1.65;;;9.80;86.10;;;;;;5048614;28;20159;-76
2021/12/02 05:44:22;;;;;;;6.20;1.58;;;9.80;86.10;;;;;;5030808;28;20472;-77
2021/12/02 05:46:47;;;;;;;4.72;1.35;;;9.90;86.20;;;;;;5047834;28;20040;-76
2021/12/02 05:49:13;;;;;;;4.82;1.30;;;9.90;86.30;;;;;;5048474;28;20029;-76
2021/12/02 05:51:41;;;;;;;4.82;1.40;;;9.90;86.30;;;;;;5026824;28;20083;-75
2021/12/02 05:54:07;;;;;;;4.05;1.30;;;9.90;86.30;;;;;;5030037;28;20025;-77
2021/12/02 05:56:33;;;;;;;6.18;1.33;;;9.90;86.40;;;;;;5031024;28;20066;-78
2021/12/02 05:58:58;;;;;;;5.32;1.30;;;9.90;86.40;;;;;;5048290;28;20120;-77
2021/12/02 06:01:24;;;;;;;3.75;1.00;;;9.90;86.50;;;;;;5027912;28;20068;-77
2021/12/02 06:03:49;;;;;;;5.80;1.50;;;9.90;86.50;;;;;;5042841;28;20116;-77
2021/12/02 06:06:17;;;;;;;9.27;1.35;;;9.90;86.50;;;;;;5030618;28;20028;-78
2021/12/02 06:08:42;;;;;;;3.83;1.10;;;9.90;86.60;;;;;;5030399;28;20025;-77
2021/12/02 06:11:08;;;;;;;5.75;1.20;;;9.90;86.60;;;;;;5030241;28;20106;-77
2021/12/02 06:13:33;;;;;;;6.93;1.27;;;9.90;86.70;;;;;;5048123;28;20036;-78
2021/12/02 06:15:59;;;;;;;10.88;1.63;;;9.90;86.50;;;;;;5048099;28;20532;-77
2021/12/02 06:18:24;;;;;;;12.23;1.85;;;9.90;86.60;;;;;;5046878;28;20396;-78
2021/12/02 06:20:56;;;;;;;9.23;1.55;;;9.90;86.60;;;;;;5030050;28;20041;-78
2021/12/02 06:23:22;;;;;;;9.05;1.27;;;9.90;86.50;;;;;;5033823;28;20029;-76
2021/12/02 06:25:48;;;;;;;6.53;1.40;;;9.90;86.40;;;;;;5051036;28;20025;-78
2021/12/02 06:28:14;;;;;;;8.02;1.50;;;10.00;86.50;;;;;;5034212;28;20365;-78
2021/12/02 06:30:40;;;;;;;6.85;1.40;;;9.90;86.40;;;;;;5033937;28;20067;-76
2021/12/02 06:33:05;;;;;;;8.32;1.40;;;9.90;86.20;;;;;;5050540;28;20049;-78
2021/12/02 06:35:31;;;;;;;6.68;1.55;;;9.90;86.00;;;;;;5051916;28;20138;-76
2021/12/02 06:37:57;;;;;;;5.93;1.30;;;9.90;86.10;;;;;;5050184;28;20548;-76
2021/12/02 06:40:23;;;;;;;8.35;1.55;;;10.00;86.20;;;;;;5051575;28;20028;-75
2021/12/02 06:42:48;;;;;;;5.72;1.10;;;10.00;86.20;;;;;;5050699;28;20036;-76
2021/12/02 06:45:14;;;;;;;4.28;1.13;;;10.00;86.20;;;;;;5033954;28;20036;-76
2021/12/02 06:47:41;;;;;;;4.47;1.25;;;10.00;86.50;;;;;;5049976;28;20033;-75
2021/12/02 06:50:09;;;;;;;6.55;1.58;;;10.00;86.20;;;;;;5049831;28;20561;-77
2021/12/02 06:52:36;;;;;;;6.38;1.48;;;10.00;86.20;;;;;;5029861;28;20029;-77
2021/12/02 06:55:03;;;;;;;7.43;1.48;;;10.00;86.10;;;;;;5029646;28;20112;-77
2021/12/02 06:57:28;;;;;;;4.25;1.10;;;9.90;86.00;;;;;;5042348;28;20155;-77
2021/12/02 06:59:54;;;;;;;5.03;1.20;;;10.00;86.10;;;;;;5031305;28;20464;-75
2021/12/02 07:02:19;;;;;;;4.40;1.30;;;10.00;86.10;;;;;;5031225;28;20426;-77
2021/12/02 07:04:46;;;;;;;5.45;1.10;;;10.00;86.10;;;;;;5030957;28;20078;-78
2021/12/02 07:07:11;;;;;;;4.13;1.35;;;10.00;86.00;;;;;;5031070;28;20028;-77
2021/12/02 07:09:37;;;;;;;7.00;1.27;;;10.00;86.10;;;;;;5030807;28;20029;-77
2021/12/02 07:12:03;;;;;;;5.63;1.45;;;10.00;86.10;;;;;;5048787;28;20029;-76
2021/12/02 07:14:28;;;;;;;5.28;1.45;;;10.00;86.20;;;;;;5030787;28;20516;-75
2021/12/02 07:16:54;;;;;;;3.80;1.30;;;9.90;86.30;;;;;;5030904;28;20037;-76
2021/12/02 07:19:20;;;;;;;5.07;1.33;;;9.90;86.50;;;;;;5049076;28;20036;-77
2021/12/02 07:21:46;;;;;;;6.07;1.23;;;9.90;86.70;;;;;;5030496;28;20036;-76
2021/12/02 07:24:15;;;;;;;3.50;1.17;;;9.80;86.90;;;;;;5048667;28;20025;-78
2021/12/02 07:26:42;;;;;;;7.22;1.65;;;9.80;87.60;;;;;;5048865;28;20035;-76
2021/12/02 07:29:10;;;;;;;4.38;1.33;;;9.80;87.30;;;;;;5048484;28;20021;-77
2021/12/02 07:31:37;;;;;;;3.75;1.27;;;9.80;87.30;;;;;;5030665;28;20025;-75
2021/12/02 07:34:03;;;;;;;4.63;1.50;;;9.80;87.40;;;;;;5029985;28;20032;-76
2021/12/02 07:36:30;;;;;;;7.13;1.40;;;9.80;87.50;;;;;;5030500;28;20396;-76
2021/12/02 07:38:56;;;;;;;4.97;1.52;;;9.80;87.50;;;;;;5030265;28;20503;-76
2021/12/02 07:41:21;;;;;;;6.40;1.70;;;9.80;87.50;;;;;;5048085;28;20160;-75
2021/12/02 07:43:47;;;;;;;5.13;1.67;;;9.80;87.60;;;;;;5030278;28;20032;-76
2021/12/02 07:46:13;;;;;;;3.85;1.48;;;9.80;87.60;;;;;;5048308;28;20029;-77
2021/12/02 07:48:38;;;;;;;4.72;1.42;;;9.80;88.20;;;;;;5048925;28;20036;-76
2021/12/02 07:51:09;;;;;;;5.93;1.67;;;9.80;87.60;;;;;;5030670;28;20317;-76
2021/12/02 07:53:35;;;;;;;5.60;1.48;;;9.80;87.40;;;;;;5030426;28;20636;-77
2021/12/02 07:56:03;;;;;;;5.85;1.40;;;9.80;87.40;;;;;;5048066;28;20021;-78
2021/12/02 07:58:30;;;;;;;5.57;1.33;;;9.80;87.40;;;;;;5029473;28;20036;-77
2021/12/02 08:01:00;;;;;;;7.72;1.60;;;9.80;87.40;;;;;;5029633;28;20472;-77
2021/12/02 08:03:26;;;;;;;4.57;1.40;;;9.80;87.50;;;;;;5029325;28;20492;-76
2021/12/02 08:05:53;;;;;;;5.55;1.30;;;9.80;87.50;;;;;;5029822;28;20025;-77
2021/12/02 08:08:19;;;;;;;4.50;1.60;;;9.80;87.60;;;;;;5047477;28;20036;-77
2021/12/02 08:10:45;;;;;;;4.47;1.50;;;9.80;87.60;;;;;;5029361;28;20025;-77
2021/12/02 08:13:13;;;;;;;7.88;1.58;;;9.80;87.40;;;;;;5047842;28;20021;-78
2021/12/02 08:15:40;;;;;;;8.10;1.73;;;9.80;87.30;;;;;;5029682;28;20081;-76
2021/12/02 08:18:05;;;;;;;4.78;1.77;;;9.80;87.40;;;;;;5029452;28;20102;-79
2021/12/02 08:20:31;;;;;;;6.53;1.63;;;9.80;87.40;;;;;;5029557;28;20506;-77
2021/12/02 08:22:57;;;;;;;3.75;1.42;;;9.80;88.00;;;;;;5031826;28;20071;-77
2021/12/02 08:25:26;;;;;;;7.80;2.00;;;9.80;87.50;;;;;;5031552;28;20064;-76
2021/12/02 08:27:52;;;;;;;4.60;1.35;;;9.80;87.50;;;;;;5031483;28;20115;-76
2021/12/02 08:30:22;;;;;;;6.35;1.60;;;9.80;87.50;;;;;;5046503;28;20527;-77
2021/12/02 08:32:47;;;;;;;5.53;1.40;;;9.80;87.60;;;;;;5046041;28;20032;-78
2021/12/02 08:35:14;;;;;;;5.50;1.42;;;9.80;87.60;;;;;;5028683;28;20025;-77
2021/12/02 08:37:45;;;;;;;6.13;1.65;;;9.80;87.60;;;;;;5047453;28;20021;-77
2021/12/02 08:40:19;;;;;;;5.17;1.50;;;9.80;87.60;;;;;;5028669;28;20029;-77
2021/12/02 08:42:46;;;;;;;3.42;1.58;;;9.80;87.60;;;;;;5029462;28;20277;-75
2021/12/02 08:45:13;;;;;;;5.07;1.80;;;9.80;87.60;;;;;;5029387;28;20037;-77
2021/12/02 08:47:44;;;;;;;3.55;1.30;;;9.80;87.60;;;;;;5029267;28;20483;-76
2021/12/02 08:50:15;;;;;;;3.07;1.33;;;9.80;87.70;;;;;;5046581;28;20031;-77
2021/12/02 08:52:41;;;;;;;4.75;1.88;;;9.80;87.70;;;;;;5047093;28;20267;-77
2021/12/02 08:55:07;;;;;;;3.58;1.20;;;9.80;87.70;;;;;;5028928;28;20484;-77
2021/12/02 08:57:34;;;;;;;4.72;1.40;;;9.80;87.70;;;;;;5029484;28;20029;-77
2021/12/02 08:59:59;;;;;;;4.35;1.70;;;9.80;87.80;;;;;;5028730;28;20074;-76
2021/12/02 09:02:25;;;;;;;3.67;1.40;;;9.80;87.80;;;;;;5046808;28;20033;-77
2021/12/02 09:04:50;;;;;;;3.75;1.42;;;9.80;87.80;;;;;;5046746;28;20100;-79
2021/12/02 09:07:16;;;;;;;4.20;1.67;;;9.80;87.90;;;;;;5047211;28;20447;-78
2021/12/02 09:09:42;;;;;;;4.05;1.50;;;9.80;87.90;;;;;;5028833;28;20036;-78
2021/12/02 09:12:09;;;;;;;3.03;1.42;;;9.80;87.90;;;;;;5028626;28;20024;-79
2021/12/02 09:14:36;;;;;;;2.97;1.50;;;9.80;87.90;;;;;;5028979;28;20028;-78
2021/12/02 09:17:02;;;;;;;3.72;1.48;;;9.80;87.90;;;;;;5046588;28;20525;-78
2021/12/02 09:19:27;;;;;;;4.90;1.80;;;9.80;87.80;;;;;;5028399;28;20029;-77
2021/12/02 09:21:53;;;;;;;4.45;1.77;;;9.80;87.80;;;;;;5028918;28;20059;-76
2021/12/02 09:24:19;;;;;;;4.45;1.60;;;9.80;87.80;;;;;;5048683;28;20756;-76
2021/12/02 09:26:49;;;;;;;3.17;1.58;;;9.80;87.70;;;;;;5030939;28;20064;-77
2021/12/02 09:29:16;;;;;;;5.03;1.80;;;9.80;87.60;;;;;;5047521;28;20532;-77
2021/12/02 09:31:43;;;;;;;5.57;1.90;;;9.80;87.50;;;;;;5027928;28;20032;-75
2021/12/02 09:34:09;;;;;;;6.05;1.80;;;9.80;87.50;;;;;;5046211;28;20029;-77
2021/12/02 09:36:35;;;;;;;10.15;2.35;;;9.80;87.50;;;;;;5046449;28;20026;-77
2021/12/02 09:39:02;;;;;;;6.68;1.88;;;9.80;87.40;;;;;;5028224;28;20025;-77
2021/12/02 09:41:28;;;;;;;5.55;2.00;;;9.80;87.40;;;;;;5028321;28;20024;-75
2021/12/02 09:43:54;;;;;;;7.07;1.88;;;9.80;87.30;;;;;;5028771;28;20035;-77
2021/12/02 09:46:19;;;;;;;3.42;1.48;;;9.90;87.10;;;;;;5028239;28;20021;-76
2021/12/02 09:48:46;;;;;;;4.28;1.60;;;9.90;87.10;;;;;;5028197;28;20388;-78
2021/12/02 09:51:18;;;;;;;3.95;1.92;;;10.00;86.70;;;;;;5028061;28;20028;-76
2021/12/02 09:56:29;;;;;;;5.75;1.70;;;10.20;86.30;;;;;;5046121;28;20116;-76
2021/12/02 09:59:01;;;;;;;3.65;1.60;;;10.30;85.60;;;;;;5029865;28;20531;-76
2021/12/02 10:01:37;;;;;;;;;;;10.30;85.40;;;;;;5047133;28;20558;-77
2021/12/02 10:04:04;;;;;;;8.00;2.05;;;10.30;85.20;;;;;;5028009;28;19970;-77
2021/12/02 10:06:31;;;;;;;6.00;1.80;;;10.30;85.40;;;;;;5028500;28;20044;-76
2021/12/02 10:09:13;;;;;;;5.68;1.90;;;10.30;85.50;;;;;;5027931;28;20036;-77
2021/12/02 10:11:51;;;;;;;5.45;1.90;;;10.20;85.60;;;;;;5028201;28;20262;-76
2021/12/02 10:14:28;;;;;;;5.80;1.92;;;10.20;85.50;;;;;;5045656;28;20096;-76
2021/12/02 10:17:10;;;;;;;3.65;1.88;;;10.20;85.80;;;;;;5028228;28;20032;-76
2021/12/02 10:19:36;;;;;;;4.55;1.70;;;10.20;86.10;;;;;;5027620;28;20143;-76
2021/12/02 10:22:09;;;;;;;4.28;1.80;;;10.20;85.60;;;;;;5027974;28;20468;-77
2021/12/02 10:24:42;;;;;;;4.50;1.83;;;10.10;85.70;;;;;;5027993;28;20033;-78
2021/12/02 10:27:08;;;;;;;7.68;2.25;;;10.10;85.70;;;;;;5027898;28;20033;-76
2021/12/02 10:29:36;;;;;;;6.53;2.00;;;10.10;85.70;;;;;;5027713;28;20025;-77
2021/12/02 10:32:14;;;;;;;3.35;1.90;;;10.10;85.70;;;;;;5045006;28;20075;-78
2021/12/02 10:34:53;;;;;;;4.32;1.98;;;10.10;85.60;;;;;;5027648;28;20499;-76
2021/12/02 10:37:25;;;;;;;3.58;1.70;;;10.10;85.70;;;;;;5027757;28;20397;-76
2021/12/02 10:39:57;;;;;;;;;;;10.00;85.60;;;;;;5027722;28;20028;-76
2021/12/02 10:42:24;;;;;;;3.75;1.60;;;10.00;85.60;;;;;;5027517;28;20471;-75
2021/12/02 10:44:50;;;;;;;4.20;1.77;;;10.10;85.60;;;;;;5028061;28;20024;-78
2021/12/02 10:47:17;;;;;;;3.30;1.63;;;10.00;85.40;;;;;;5045544;28;20399;-76
2021/12/02 10:49:45;;;;;;;3.20;1.58;;;10.00;85.40;;;;;;5045405;28;20029;-78
2021/12/02 10:52:31;;;;;;;4.40;1.95;;;10.00;85.40;;;;;;5045202;28;20028;-77
2021/12/02 10:55:12;;;;;;;5.55;1.80;;;10.00;85.40;;;;;;5027888;28;20112;-76
2021/12/02 10:57:46;;;;;;;3.42;1.75;;;10.00;85.40;;;;;;5029173;28;20021;-76
2021/12/02 11:00:15;;;;;;;3.63;1.65;;;10.00;85.50;;;;;;5029076;28;20472;-76
2021/12/02 11:02:48;;;;;;;3.78;1.67;;;10.00;85.60;;;;;;5047341;28;20516;-77
2021/12/02 11:05:23;;;;;;;3.55;1.90;;;10.00;85.60;;;;;;5029976;28;20052;-77
2021/12/02 11:07:56;;;;;;;3.78;2.00;;;9.90;85.60;;;;;;5029561;28;20112;-76
2021/12/02 11:10:23;;;;;;;2.85;1.80;;;9.90;85.70;;;;;;5032649;28;20406;-77
2021/12/02 11:12:53;;;;;;;5.05;2.10;;;10.00;85.70;;;;;;5033060;28;20059;-77
2021/12/02 11:15:29;;;;;;;5.25;2.15;;;9.90;85.70;;;;;;5033034;28;20033;-75
2021/12/02 11:18:06;;;;;;;4.85;1.98;;;9.90;85.60;;;;;;5046241;28;20029;-76
2021/12/02 11:20:43;;;;;;;5.45;2.30;;;9.90;85.70;;;;;;5049918;28;20028;-76
2021/12/02 11:23:12;;;;;;;4.70;2.10;;;9.90;85.70;;;;;;5032523;28;20037;-76
2021/12/02 11:25:52;;;;;;;3.00;1.92;;;9.90;85.70;;;;;;5030797;28;20555;-77
2021/12/02 11:28:18;;;;;;;3.38;1.80;;;9.90;85.90;;;;;;5030492;28;20392;-78
2021/12/02 11:30:43;;;;;;;3.45;1.98;;;9.90;85.90;;;;;;5030239;28;20312;-76
2021/12/02 11:33:09;;;;;;;5.38;2.00;;;9.90;85.90;;;;;;5030745;28;20075;-77
2021/12/02 11:35:42;;;;;;;4.70;2.10;;;9.90;86.00;;;;;;5024804;28;20020;-76
2021/12/02 11:38:27;;;;;;;4.10;1.77;;;9.90;86.00;;;;;;5025905;28;20022;-76
2021/12/02 11:41:02;;;;;;;3.80;1.80;;;9.90;86.10;;;;;;5038888;28;20037;-77
2021/12/02 11:43:30;;;;;;;3.80;1.60;;;9.90;86.20;;;;;;5039593;28;20726;-77
2021/12/02 11:45:57;;;;;;;3.10;1.85;;;9.90;86.20;;;;;;5049057;28;20115;-76
2021/12/02 11:48:26;;;;;;;3.97;2.10;;;9.90;86.30;;;;;;5049350;28;20029;-77
2021/12/02 11:50:54;;;;;;;2.97;1.90;;;9.90;86.30;;;;;;5048927;28;20119;-76
2021/12/02 11:53:22;;;;;;;3.72;1.90;;;9.90;86.30;;;;;;5047319;28;20056;-77
2021/12/02 11:56:09;;;;;;;5.25;2.33;;;9.90;86.40;;;;;;5048324;28;20056;-79
2021/12/02 11:58:35;;;;;;;4.53;1.90;;;9.90;86.40;;;;;;5046419;28;20474;-76
2021/12/02 12:01:03;;;;;;;5.97;2.03;;;9.90;86.40;;;;;;5046903;28;20063;-76
2021/12/02 12:03:37;;;;;;;5.57;2.00;;;9.90;86.40;;;;;;5047035;28;20028;-77
2021/12/02 12:06:06;;;;;;;5.10;2.30;;;9.90;86.40;;;;;;5046701;28;20139;-77
2021/12/02 12:08:36;;;;;;;6.95;2.42;;;9.90;86.40;;;;;;5046730;28;20757;-75
2021/12/02 12:11:24;;;;;;;5.72;2.38;;;9.90;85.80;;;;;;5050328;28;20028;-77
2021/12/02 12:13:54;;;;;;;4.60;2.50;;;9.80;84.70;;;;;;5052578;28;20028;-77
2021/12/02 12:16:23;;;;;;;4.65;2.47;;;9.80;84.20;;;;;;5052414;28;20112;-77
2021/12/02 12:18:48;;;;;;;4.82;2.60;;;9.80;84.20;;;;;;5052125;28;20424;-77
2021/12/02 12:21:14;;;;;;;5.63;2.60;;;9.80;84.70;;;;;;5052106;28;20043;-79
2021/12/02 12:23:44;;;;;;;4.55;2.40;;;9.80;85.00;;;;;;5052206;28;20021;-78
2021/12/02 12:26:37;;;;;;;5.50;2.58;;;9.80;85.20;;;;;;5052235;28;20036;-77
2021/12/02 12:29:09;;;;;;;4.55;2.45;;;9.80;85.40;;;;;;5053142;28;20029;-78
2021/12/02 12:32:06;;;;;;;4.25;2.50;;;9.80;85.60;;;;;;5052151;28;20036;-77
2021/12/02 12:34:33;;;;;;;7.18;2.90;;;9.80;85.70;;;;;;5052220;28;20017;-77
2021/12/02 12:37:27;;;;;;;5.15;2.45;;;9.80;85.90;;;;;;5053486;28;20028;-78
2021/12/02 12:40:22;;;;;;;4.70;2.50;;;9.80;86.00;;;;;;5052890;28;20498;-78
2021/12/02 12:42:57;;;;;;;4.53;2.70;;;9.90;86.10;;;;;;5031055;28;20029;-78
2021/12/02 12:45:31;;;;;;;4.30;2.67;;;9.90;86.10;;;;;;5053069;28;20459;-79
2021/12/02 12:48:02;;;;;;;4.80;2.97;;;9.90;86.10;;;;;;5053035;28;20101;-77
2021/12/02 12:50:35;;;;;;;4.50;3.00;;;9.90;86.00;;;;;;5052674;28;20021;-77
2021/12/02 12:53:04;;;;;;;5.32;3.10;;;10.00;85.90;;;;;;5051730;28;20060;-77
2021/12/02 12:55:39;;;;;;;4.07;2.67;;;10.00;85.80;;;;;;5051654;28;20407;-77
2021/12/02 12:58:13;;;;;;;6.32;3.22;;;10.00;85.70;;;;;;5051782;28;20021;-78
2021/12/02 13:00:51;;;;;;;5.30;3.00;;;10.00;85.70;;;;;;5051139;28;20036;-77
2021/12/02 13:03:32;;;;;;;6.13;3.63;;;10.00;85.70;;;;;;5051741;28;20459;-78
2021/12/02 13:06:19;;;;;;;5.90;2.97;;;10.00;85.60;;;;;;5051592;28;20373;-77
2021/12/02 13:09:06;;;;;;;5.28;2.97;;;10.00;85.60;;;;;;5051143;28;20514;-77
2021/12/02 13:11:33;;;;;;;4.78;3.00;;;10.00;85.60;;;;;;5051333;28;20056;-77
2021/12/02 13:14:01;;;;;;;4.20;2.80;;;10.00;85.60;;;;;;5052587;28;20025;-77
2021/12/02 13:16:30;;;;;;;6.32;2.90;;;10.00;85.60;;;;;;5051197;28;20017;-78
2021/12/02 13:18:59;;;;;;;4.78;2.70;;;10.00;85.70;;;;;;5050971;28;20036;-78
2021/12/02 13:21:28;;;;;;;5.00;2.58;;;10.00;85.70;;;;;;5050940;28;20503;-78